Dades de l'estació automàtica Ulldeter (2.413 m)
Resum diari
16:30 TU| Temperatura mitjana | 2.6 °C | |
|---|---|---|
| Temperatura màxima | 5.2 °C | 9:50 TU |
| Temperatura mínima | 0.4 °C | 4:10 TU |
| Humitat relativa mitjana | 94% | |
| Precipitació acumulada | 12.2 mm | |
| Gruix de neu màxim | 0 cm | |
| Ratxa màxima del vent (10 m) | 54.7 km/h - 186º | 3:34 TU |
| Irradiació solar global | 14.0 MJ/m2 | |
El tram horari està expressat en Temps Universal (TU). Cal sumar una hora en horari d'hivern i dues en horari d'estiu per passar a l'hora oficial.
Ulldeter (2.413 m)
| Municipi | Setcases |
|---|---|
| Comarca | Ripollès |
| Altitud | 2413 m |
| Data alta | 28.09.2011 |
| Estat actual | Operativa |
| Període TU |
TM °C |
TX °C |
TN °C |
HRM % |
PPT mm |
GN cm |
VVM (10 m) km/h |
DVM (10 m) graus |
VVX (10 m) km/h |
RS W/m2 |
|---|---|---|---|---|---|---|---|---|---|---|
| 00:00 - 00:30 | 1.8 | 2.0 | 1.2 | 100 | 0.3 | (s/d) | 31.0 | 216 | 53.3 | 0 |
| 00:30 - 01:00 | 1.5 | 1.8 | 1.1 | 100 | 0.2 | (s/d) | 32.8 | 221 | 51.5 | 0 |
| 01:00 - 01:30 | 1.6 | 1.8 | 1.4 | 100 | 0.1 | (s/d) | 29.5 | 210 | 50.4 | 0 |
| 01:30 - 02:00 | 1.4 | 1.7 | 1.0 | 100 | 0.3 | (s/d) | 31.0 | 220 | 48.2 | 0 |
| 02:00 - 02:30 | 1.0 | 1.1 | 0.6 | 100 | 0.5 | (s/d) | 24.1 | 215 | 36.0 | 0 |
| 02:30 - 03:00 | 0.8 | 1.2 | 0.5 | 100 | 0.2 | (s/d) | 22.0 | 216 | 34.2 | 0 |
| 03:00 - 03:30 | 0.8 | 1.0 | 0.7 | 100 | 0.7 | (s/d) | 26.6 | 216 | 46.4 | 0 |
| 03:30 - 04:00 | 0.9 | 1.1 | 0.8 | 100 | 0.5 | (s/d) | 26.6 | 214 | 54.7 | 0 |
| 04:00 - 04:30 | 0.5 | 0.7 | 0.4 | 100 | 0.8 | (s/d) | 9.4 | 271 | 33.1 | 0 |
| 04:30 - 05:00 | 0.8 | 1.4 | 0.5 | 100 | 0.6 | (s/d) | 11.9 | 311 | 25.9 | 2 |
| 05:00 - 05:30 | 1.4 | 2.0 | 1.1 | 100 | 0.0 | 0 | 9.0 | 290 | 34.2 | 17 |
| 05:30 - 06:00 | 2.3 | 2.6 | 2.0 | 99 | 0.0 | (s/d) | 11.2 | 306 | 43.6 | 49 |
| 06:00 - 06:30 | 2.5 | 2.8 | 2.2 | 95 | 0.1 | (s/d) | 16.6 | 293 | 36.4 | 151 |
| 06:30 - 07:00 | 2.1 | 2.5 | 1.8 | 97 | 0.2 | (s/d) | 13.3 | 292 | 31.7 | 138 |
| 07:00 - 07:30 | 2.8 | 3.1 | 2.4 | 85 | 0.0 | (s/d) | 11.2 | 291 | 28.4 | 230 |
| 07:30 - 08:00 | 3.4 | 3.6 | 3.0 | 82 | 0.0 | (s/d) | 5.4 | 357 | 19.4 | 366 |
| 08:00 - 08:30 | 3.5 | 3.9 | 3.2 | 84 | 0.0 | (s/d) | 5.0 | 251 | 15.8 | 518 |
| 08:30 - 09:00 | 3.5 | 3.8 | 3.3 | 88 | 0.0 | (s/d) | 6.1 | 291 | 26.6 | 552 |
| 09:00 - 09:30 | 4.3 | 4.9 | 3.5 | 76 | 0.0 | (s/d) | 16.6 | 199 | 37.4 | 740 |
| 09:30 - 10:00 | 5.0 | 5.2 | 4.7 | 76 | 0.0 | (s/d) | 11.9 | 208 | 31.3 | 732 |
| 10:00 - 10:30 | 4.4 | 5.2 | 4.1 | 84 | 0.0 | (s/d) | 18.7 | 217 | 38.5 | 583 |
| 10:30 - 11:00 | 4.1 | 4.4 | 3.8 | 87 | 0.0 | (s/d) | 18.0 | 216 | 36.4 | 502 |
| 11:00 - 11:30 | 3.8 | 4.1 | 3.3 | 91 | 0.0 | (s/d) | 20.2 | 216 | 42.5 | 463 |
| 11:30 - 12:00 | 3.9 | 4.2 | 3.6 | 91 | 0.0 | (s/d) | 19.8 | 219 | 32.8 | 590 |
| 12:00 - 12:30 | 3.9 | 4.5 | 3.3 | 91 | 0.0 | (s/d) | 19.4 | 222 | 29.2 | 545 |
| 12:30 - 13:00 | 3.2 | 3.4 | 3.1 | 97 | 0.0 | (s/d) | 20.5 | 225 | 32.8 | 430 |
| 13:00 - 13:30 | 3.4 | 3.6 | 3.2 | 93 | 0.0 | (s/d) | 22.7 | 217 | 33.5 | 548 |
| 13:30 - 14:00 | 3.1 | 3.2 | 3.0 | 97 | 0.0 | (s/d) | 19.4 | 218 | 29.5 | 237 |
| 14:00 - 14:30 | 3.1 | 3.4 | 2.9 | 97 | 0.0 | (s/d) | 20.2 | 221 | 34.2 | 138 |
| 14:30 - 15:00 | 2.8 | 3.0 | 2.7 | 100 | 0.4 | (s/d) | 18.7 | 220 | 29.2 | 120 |
| 15:00 - 15:30 | 2.7 | 2.9 | 2.5 | 100 | 0.1 | (s/d) | 14.4 | 224 | 39.2 | 66 |
| 15:30 - 16:00 | 2.9 | 3.0 | 2.8 | 100 | 2.1 | (s/d) | 20.5 | 224 | 41.0 | 27 |
| 16:00 - 16:30 | 2.7 | 2.8 | 2.5 | 100 | 3.2 | (s/d) | 18.0 | 226 | 32.8 | 27 |
| 16:30 - 17:00 | 2.7 | 2.8 | 2.6 | 100 | 1.9 | (s/d) | 17.3 | 171 | 34.6 | 29 |
| 17:00 - 17:30 | (s/d) | (s/d) | (s/d) | (s/d) | (s/d) | (s/d) | (s/d) | (s/d) | (s/d) | (s/d) |
Les dades en taronja només han passat un control de qualitat automàtic. Resta pendent la seva validació definitiva.